Time;durP1;ratioP1;P1;durP2;ratioP2;P2;SDS_P1;SDS_P2;PMS_P1;PMS_P2;Temp;Humidity;BMP_temperature;BMP_pressure;BME280_temperature;BME280_humidity;BME280_pressure;Samples;Min_cycle;Max_cycle;Signal;HPM_P1;HPM_P2
2023/01/05 00:01:05;;;;;;;0.20;0.20;;;;;;;;;;4945507;28;20093;-70
2023/01/05 00:03:31;;;;;;;0.10;0.10;;;;;;;;;;4960426;28;20097;-70
2023/01/05 00:06:16;;;;;;;0.35;0.15;;;;;;;;;;4944130;28;20047;-70
2023/01/05 00:08:42;;;;;;;0.60;0.20;;;;;;;;;;4956228;28;20122;-70
2023/01/05 00:22:30;;;;;;;0.20;0.20;;;;;;;;;;4944702;28;20192;-70
2023/01/05 00:25:09;;;;;;;0.20;0.20;;;;;;;;;;4945330;28;20118;-70
2023/01/05 00:27:34;;;;;;;0.45;0.10;;;;;;;;;;4943624;28;20093;-66
2023/01/05 00:30:00;;;;;;;0.20;0.20;;;;;;;;;;4958295;28;20539;-69
2023/01/05 00:32:26;;;;;;;0.20;0.20;;;;;;;;;;4944629;28;20494;-67
2023/01/05 00:34:56;;;;;;;0.17;0.17;;;;;;;;;;4945119;28;20043;-67
2023/01/05 00:37:23;;;;;;;0.10;0.10;;;;;;;;;;4942993;28;20047;-66
2023/01/05 00:39:49;;;;;;;0.10;0.10;;;;;;;;;;4942673;28;20198;-65
2023/01/05 00:42:15;;;;;;;1.85;0.20;;;;;;;;;;4944121;28;20143;-68
2023/01/05 00:44:40;;;;;;;0.20;0.20;;;;;;;;;;4959228;28;20063;-67
2023/01/05 00:47:05;;;;;;;0.20;0.20;;;;;;;;;;4944185;28;20051;-67
2023/01/05 00:49:31;;;;;;;0.10;0.10;;;;;;;;;;4959373;28;20047;-67
2023/01/05 00:51:56;;;;;;;0.13;0.13;;;;;;;;;;4943893;28;20528;-68
2023/01/05 00:54:22;;;;;;;0.10;0.10;;;;;;;;;;4944156;28;20496;-67
2023/01/05 00:56:50;;;;;;;0.80;0.20;;;;;;;;;;4944222;28;20047;-66
2023/01/05 00:59:16;;;;;;;0.25;0.17;;;;;;;;;;4933239;28;20507;-67
2023/01/05 01:01:50;;;;;;;0.10;0.10;;;;;;;;;;4938891;28;20051;-67
2023/01/05 01:04:16;;;;;;;0.10;0.10;;;;;;;;;;4924546;28;20055;-67
2023/01/05 01:06:42;;;;;;;0.10;0.10;;;;;;;;;;4923198;29;20057;-69
2023/01/05 01:09:08;;;;;;;0.10;0.10;;;;;;;;;;4925279;29;20055;-68
2023/01/05 01:11:34;;;;;;;0.30;0.10;;;;;;;;;;4938818;28;20062;-69
2023/01/05 01:13:59;;;;;;;0.20;0.20;;;;;;;;;;4924473;28;20055;-72
2023/01/05 01:16:25;;;;;;;0.10;0.10;;;;;;;;;;4939725;28;20062;-68
2023/01/05 01:18:50;;;;;;;0.08;0.08;;;;;;;;;;4924564;28;20062;-69
2023/01/05 01:21:16;;;;;;;0.10;0.10;;;;;;;;;;4924970;29;20114;-68
2023/01/05 01:23:42;;;;;;;0.00;0.00;;;;;;;;;;4938920;29;20035;-68
2023/01/05 01:26:11;;;;;;;0.10;0.10;;;;;;;;;;4923144;28;20055;-67
2023/01/05 01:28:38;;;;;;;0.10;0.10;;;;;;;;;;4922532;28;20039;-68
2023/01/05 01:31:04;;;;;;;0.05;0.05;;;;;;;;;;4922688;28;20453;-67
2023/01/05 01:33:30;;;;;;;0.20;0.20;;;;;;;;;;4922702;29;20066;-68
2023/01/05 01:35:56;;;;;;;0.10;0.10;;;;;;;;;;4923084;29;20047;-69
2023/01/05 01:38:22;;;;;;;0.03;0.03;;;;;;;;;;4936719;28;20087;-68
2023/01/05 01:40:49;;;;;;;0.00;0.00;;;;;;;;;;4939159;29;20445;-67
2023/01/05 01:43:41;;;;;;;0.22;0.22;;;;;;;;;;4923418;28;20062;-67
2023/01/05 01:46:06;;;;;;;0.10;0.10;;;;;;;;;;4914899;29;20130;-70
2023/01/05 01:48:35;;;;;;;0.00;0.00;;;;;;;;;;4937895;28;20056;-69
2023/01/05 01:51:05;;;;;;;0.10;0.10;;;;;;;;;;4924485;29;20052;-69
2023/01/05 01:53:41;;;;;;;0.10;0.10;;;;;;;;;;4939771;28;20067;-69
2023/01/05 01:56:10;;;;;;;0.10;0.10;;;;;;;;;;4922737;29;20048;-69
2023/01/05 01:58:36;;;;;;;0.10;0.10;;;;;;;;;;4938341;28;20102;-69
2023/01/05 02:01:02;;;;;;;0.05;0.05;;;;;;;;;;4938354;28;20153;-69
2023/01/05 02:03:29;;;;;;;0.10;0.10;;;;;;;;;;4922897;29;21163;-69
2023/01/05 02:05:54;;;;;;;0.10;0.10;;;;;;;;;;4938771;29;20048;-69
2023/01/05 02:08:24;;;;;;;0.10;0.10;;;;;;;;;;4921878;28;20527;-68
2023/01/05 02:11:14;;;;;;;0.10;0.10;;;;;;;;;;4938369;28;20062;-69
2023/01/05 02:14:10;;;;;;;0.10;0.10;;;;;;;;;;4924334;28;20058;-68
2023/01/05 02:17:13;;;;;;;0.20;0.20;;;;;;;;;;4941236;28;20050;-68
2023/01/05 02:19:42;;;;;;;0.10;0.10;;;;;;;;;;4957525;28;20055;-68
2023/01/05 02:22:35;;;;;;;0.20;0.20;;;;;;;;;;4956627;28;20078;-68
2023/01/05 02:25:38;;;;;;;0.20;0.20;;;;;;;;;;4936794;28;20058;-67
2023/01/05 02:28:20;;;;;;;0.20;0.20;;;;;;;;;;4956671;28;20050;-68
2023/01/05 02:31:13;;;;;;;0.32;0.22;;;;;;;;;;4957197;28;20109;-68
2023/01/05 02:33:56;;;;;;;0.10;0.10;;;;;;;;;;4956147;28;20047;-67
2023/01/05 02:36:42;;;;;;;0.10;0.10;;;;;;;;;;4956542;28;20075;-67
2023/01/05 02:39:14;;;;;;;0.10;0.10;;;;;;;;;;4956948;28;20055;-68
2023/01/05 02:41:58;;;;;;;0.10;0.10;;;;;;;;;;4942880;28;20054;-68
2023/01/05 02:44:28;;;;;;;0.10;0.10;;;;;;;;;;4940012;28;20059;-68
2023/01/05 02:47:24;;;;;;;0.10;0.10;;;;;;;;;;4941744;28;20690;-67
2023/01/05 02:50:12;;;;;;;4.25;0.30;;;;;;;;;;4935270;28;20043;-69
2023/01/05 02:52:43;;;;;;;0.10;0.10;;;;;;;;;;4939792;28;20051;-68
2023/01/05 02:55:14;;;;;;;0.30;0.20;;;;;;;;;;4941563;28;20055;-67
2023/01/05 02:57:47;;;;;;;0.20;0.20;;;;;;;;;;4956701;28;20051;-68
2023/01/05 03:00:22;;;;;;;0.17;0.15;;;;;;;;;;4956868;28;20066;-66
2023/01/05 03:02:53;;;;;;;0.10;0.10;;;;;;;;;;4942533;28;20055;-68
2023/01/05 03:05:24;;;;;;;0.22;0.20;;;;;;;;;;4940231;28;20070;-68
2023/01/05 03:07:50;;;;;;;0.30;0.20;;;;;;;;;;4941837;28;20054;-66
2023/01/05 03:16:00;;;;;;;0.20;0.20;;;;;;;;;;4957159;28;20106;-67
2023/01/05 03:18:30;;;;;;;0.10;0.10;;;;;;;;;;4955049;28;20050;-66
2023/01/05 03:20:56;;;;;;;0.22;0.20;;;;;;;;;;4956844;28;21118;-67
2023/01/05 03:37:50;;;;;;;0.10;0.10;;;;;;;;;;4955926;28;20149;-67
2023/01/05 03:40:23;;;;;;;2.45;0.20;;;;;;;;;;4939346;28;20122;-68
2023/01/05 03:42:51;;;;;;;0.20;0.20;;;;;;;;;;4956655;28;20086;-66
2023/01/05 03:45:18;;;;;;;1.55;0.35;;;;;;;;;;4940489;29;20127;-67
2023/01/05 03:47:44;;;;;;;0.22;0.20;;;;;;;;;;4956202;28;20055;-68
2023/01/05 03:50:09;;;;;;;0.10;0.10;;;;;;;;;;4940408;28;20043;-68
2023/01/05 03:52:35;;;;;;;0.30;0.20;;;;;;;;;;4956703;28;20047;-68
2023/01/05 03:55:01;;;;;;;0.52;0.13;;;;;;;;;;4941777;28;20051;-68
2023/01/05 03:57:26;;;;;;;0.10;0.10;;;;;;;;;;4956214;28;20051;-67
2023/01/05 03:59:52;;;;;;;0.20;0.20;;;;;;;;;;4956523;28;20119;-68
2023/01/05 04:02:18;;;;;;;0.10;0.10;;;;;;;;;;4938774;28;20053;-67
2023/01/05 04:04:43;;;;;;;0.10;0.10;;;;;;;;;;4944150;29;20138;-68
2023/01/05 04:07:09;;;;;;;0.10;0.10;;;;;;;;;;4959562;28;20059;-67
2023/01/05 04:09:35;;;;;;;0.57;0.30;;;;;;;;;;4960359;28;20039;-67
2023/01/05 04:12:01;;;;;;;0.10;0.10;;;;;;;;;;4958721;28;20050;-67
2023/01/05 04:14:31;;;;;;;0.13;0.13;;;;;;;;;;4959800;28;20106;-67
2023/01/05 04:16:57;;;;;;;0.10;0.10;;;;;;;;;;4960093;28;20408;-66
2023/01/05 04:19:23;;;;;;;0.10;0.10;;;;;;;;;;4943398;28;20496;-68
2023/01/05 04:21:51;;;;;;;0.20;0.13;;;;;;;;;;4944355;28;20087;-67
2023/01/05 04:24:17;;;;;;;0.38;0.10;;;;;;;;;;4942101;28;20174;-67
2023/01/05 04:26:44;;;;;;;1.67;0.13;;;;;;;;;;4959789;28;20209;-68
2023/01/05 04:29:10;;;;;;;0.30;0.30;;;;;;;;;;4959254;28;20683;-69
2023/01/05 04:31:37;;;;;;;0.75;0.17;;;;;;;;;;4959444;28;20047;-69
2023/01/05 04:34:02;;;;;;;0.10;0.10;;;;;;;;;;4958197;28;20059;-68
2023/01/05 04:36:28;;;;;;;0.55;0.20;;;;;;;;;;4943823;28;20058;-69
2023/01/05 04:38:55;;;;;;;1.65;0.20;;;;;;;;;;4942979;29;20035;-68
2023/01/05 04:41:21;;;;;;;1.10;0.20;;;;;;;;;;4959750;28;20062;-67
2023/01/05 04:43:49;;;;;;;0.10;0.10;;;;;;;;;;4959784;28;20051;-69
2023/01/05 04:46:15;;;;;;;0.35;0.15;;;;;;;;;;4957824;28;20567;-68
2023/01/05 04:48:43;;;;;;;0.10;0.10;;;;;;;;;;4941825;28;20452;-68
2023/01/05 04:51:09;;;;;;;0.20;0.20;;;;;;;;;;4958351;28;20488;-68
2023/01/05 04:53:36;;;;;;;0.30;0.30;;;;;;;;;;4943096;28;20093;-69
2023/01/05 04:56:04;;;;;;;0.17;0.17;;;;;;;;;;4957844;28;20090;-67
2023/01/05 04:58:34;;;;;;;0.20;0.20;;;;;;;;;;4958512;28;20456;-68
2023/01/05 05:01:00;;;;;;;0.17;0.17;;;;;;;;;;4957739;28;20050;-68
2023/01/05 05:03:29;;;;;;;0.10;0.10;;;;;;;;;;4958929;28;20050;-68
2023/01/05 05:05:56;;;;;;;1.08;0.17;;;;;;;;;;4958943;28;21013;-68
2023/01/05 05:08:24;;;;;;;0.10;0.10;;;;;;;;;;4940771;28;20047;-68
2023/01/05 05:10:50;;;;;;;0.30;0.30;;;;;;;;;;4959417;28;20407;-68
2023/01/05 05:13:17;;;;;;;0.40;0.20;;;;;;;;;;4958458;28;20067;-68
2023/01/05 05:15:44;;;;;;;0.10;0.10;;;;;;;;;;4942700;29;20066;-68
2023/01/05 05:18:10;;;;;;;0.10;0.10;;;;;;;;;;4956824;28;20102;-68
2023/01/05 05:20:41;;;;;;;0.20;0.20;;;;;;;;;;4958733;28;20061;-67
2023/01/05 05:23:07;;;;;;;0.17;0.17;;;;;;;;;;4958743;28;20043;-65
2023/01/05 05:25:32;;;;;;;0.25;0.25;;;;;;;;;;4958992;28;20067;-67
2023/01/05 05:27:58;;;;;;;0.20;0.20;;;;;;;;;;4958069;28;20049;-68
2023/01/05 05:30:24;;;;;;;0.10;0.10;;;;;;;;;;4942646;28;20144;-68
2023/01/05 05:32:49;;;;;;;0.10;0.10;;;;;;;;;;4943542;28;20059;-68
2023/01/05 05:35:14;;;;;;;0.10;0.10;;;;;;;;;;4944131;28;20082;-67
2023/01/05 05:37:40;;;;;;;0.10;0.10;;;;;;;;;;4943008;28;20043;-69
2023/01/05 05:40:06;;;;;;;0.75;0.30;;;;;;;;;;4957311;28;20412;-67
2023/01/05 05:42:31;;;;;;;1.77;0.30;;;;;;;;;;4943681;28;20059;-67
2023/01/05 05:44:56;;;;;;;0.20;0.20;;;;;;;;;;4943859;28;20075;-67
2023/01/05 05:47:22;;;;;;;0.20;0.20;;;;;;;;;;4957538;28;20508;-67
2023/01/05 05:49:47;;;;;;;0.10;0.10;;;;;;;;;;4943989;28;20130;-67
2023/01/05 05:52:12;;;;;;;0.10;0.10;;;;;;;;;;4941837;28;20169;-68
2023/01/05 05:54:38;;;;;;;0.10;0.10;;;;;;;;;;4943584;28;20046;-68
2023/01/05 05:57:03;;;;;;;2.20;0.20;;;;;;;;;;4943247;28;20051;-67
2023/01/05 05:59:29;;;;;;;0.10;0.10;;;;;;;;;;4942985;28;20130;-67
2023/01/05 06:01:54;;;;;;;0.38;0.25;;;;;;;;;;4942528;28;20777;-68
2023/01/05 06:04:19;;;;;;;0.10;0.10;;;;;;;;;;4942881;28;20493;-68
2023/01/05 06:06:45;;;;;;;0.30;0.20;;;;;;;;;;4943012;28;20055;-67
2023/01/05 06:09:10;;;;;;;0.10;0.10;;;;;;;;;;4942529;28;20051;-67
2023/01/05 06:11:35;;;;;;;0.10;0.10;;;;;;;;;;4943227;28;20046;-68
2023/01/05 06:14:01;;;;;;;0.17;0.17;;;;;;;;;;4942153;28;20058;-73
2023/01/05 06:16:27;;;;;;;0.10;0.10;;;;;;;;;;4943112;28;20051;-67
2023/01/05 06:18:53;;;;;;;0.20;0.20;;;;;;;;;;4957130;28;20062;-67
2023/01/05 06:21:20;;;;;;;0.10;0.10;;;;;;;;;;4943199;28;20055;-67
2023/01/05 06:23:45;;;;;;;0.28;0.28;;;;;;;;;;4942214;28;20047;-68
2023/01/05 06:26:11;;;;;;;0.17;0.17;;;;;;;;;;4942421;28;20055;-68
2023/01/05 06:28:36;;;;;;;0.10;0.10;;;;;;;;;;4942255;28;20144;-68
2023/01/05 06:31:02;;;;;;;0.10;0.10;;;;;;;;;;4942751;28;20516;-68
2023/01/05 06:33:27;;;;;;;1.20;0.22;;;;;;;;;;4942879;28;20663;-68
2023/01/05 06:35:52;;;;;;;0.32;0.32;;;;;;;;;;4942229;28;20035;-68
2023/01/05 06:38:18;;;;;;;0.20;0.20;;;;;;;;;;4941721;28;20074;-68
2023/01/05 06:40:45;;;;;;;0.20;0.20;;;;;;;;;;4943068;28;20062;-68
2023/01/05 06:43:11;;;;;;;0.10;0.10;;;;;;;;;;4942556;28;20058;-68
2023/01/05 06:45:37;;;;;;;0.57;0.30;;;;;;;;;;4941881;28;20054;-67
2023/01/05 06:48:02;;;;;;;0.10;0.10;;;;;;;;;;4941478;28;20497;-69
2023/01/05 06:50:29;;;;;;;0.10;0.10;;;;;;;;;;4942536;28;20507;-68
2023/01/05 06:52:55;;;;;;;0.30;0.30;;;;;;;;;;4942864;28;20074;-68
2023/01/05 06:55:20;;;;;;;0.13;0.13;;;;;;;;;;4942654;28;20934;-66
2023/01/05 06:57:46;;;;;;;0.68;0.32;;;;;;;;;;4941210;28;20058;-68
2023/01/05 07:00:13;;;;;;;0.35;0.20;;;;;;;;;;4941935;28;20054;-69
2023/01/05 07:02:38;;;;;;;0.57;0.25;;;;;;;;;;4942597;28;20059;-68
2023/01/05 07:05:04;;;;;;;0.25;0.20;;;;;;;;;;4942463;28;20055;-68
2023/01/05 07:07:29;;;;;;;0.10;0.10;;;;;;;;;;4940926;28;20157;-69
2023/01/05 07:09:55;;;;;;;0.28;0.20;;;;;;;;;;4942878;28;20496;-69
2023/01/05 07:12:21;;;;;;;0.30;0.30;;;;;;;;;;4957602;28;20043;-69
2023/01/05 07:14:47;;;;;;;4.57;0.32;;;;;;;;;;4943339;28;20148;-69
2023/01/05 07:17:12;;;;;;;0.35;0.30;;;;;;;;;;4942565;28;20067;-69
2023/01/05 07:19:38;;;;;;;0.25;0.20;;;;;;;;;;4941431;28;20047;-69
2023/01/05 07:22:04;;;;;;;0.85;0.20;;;;;;;;;;4941690;28;20142;-67
2023/01/05 07:24:29;;;;;;;0.70;0.20;;;;;;;;;;4941938;28;20035;-66
2023/01/05 07:26:57;;;;;;;0.52;0.50;;;;;;;;;;4942068;28;20587;-67
2023/01/05 07:29:22;;;;;;;0.43;0.20;;;;;;;;;;4939790;28;20047;-68
2023/01/05 07:31:51;;;;;;;7.97;1.17;;;;;;;;;;4942041;28;20114;-68
2023/01/05 07:34:17;;;;;;;0.17;0.17;;;;;;;;;;4941163;28;20130;-68
2023/01/05 07:36:42;;;;;;;0.30;0.30;;;;;;;;;;4942373;28;21178;-67
2023/01/05 07:39:07;;;;;;;0.25;0.25;;;;;;;;;;4945162;28;20137;-68
2023/01/05 07:41:33;;;;;;;0.20;0.20;;;;;;;;;;4944794;28;20114;-68
2023/01/05 07:43:58;;;;;;;0.30;0.20;;;;;;;;;;4945350;28;20791;-68
2023/01/05 07:46:24;;;;;;;0.20;0.20;;;;;;;;;;4941099;28;20685;-68
2023/01/05 07:48:49;;;;;;;0.30;0.30;;;;;;;;;;4941820;28;20054;-68
2023/01/05 07:51:14;;;;;;;0.30;0.30;;;;;;;;;;4943309;28;20038;-67
2023/01/05 07:53:40;;;;;;;0.20;0.20;;;;;;;;;;4942182;28;20134;-68
2023/01/05 07:56:06;;;;;;;0.10;0.10;;;;;;;;;;4955987;28;20837;-67
2023/01/05 07:58:32;;;;;;;0.85;0.30;;;;;;;;;;4941115;28;20122;-67
2023/01/05 08:01:06;;;;;;;0.20;0.20;;;;;;;;;;4941550;28;20743;-68
2023/01/05 08:03:31;;;;;;;0.70;0.22;;;;;;;;;;4939025;28;20709;-67
2023/01/05 08:05:57;;;;;;;0.30;0.10;;;;;;;;;;4942551;28;20091;-68
2023/01/05 08:08:23;;;;;;;2.08;0.13;;;;;;;;;;4942346;28;20493;-67
2023/01/05 08:10:48;;;;;;;0.20;0.10;;;;;;;;;;4943607;28;20050;-67
2023/01/05 08:16:01;;;;;;;0.10;0.10;;;;;;;;;;4943009;28;20520;-67
2023/01/05 08:18:27;;;;;;;0.20;0.10;;;;;;;;;;4941915;28;20110;-66
2023/01/05 08:20:59;;;;;;;0.20;0.20;;;;;;;;;;4944374;28;20039;-68
2023/01/05 08:23:26;;;;;;;0.20;0.20;;;;;;;;;;4942456;28;20059;-67
2023/01/05 08:25:53;;;;;;;0.10;0.10;;;;;;;;;;4943326;28;20047;-68
2023/01/05 08:28:18;;;;;;;0.20;0.20;;;;;;;;;;4942464;28;20051;-68
2023/01/05 08:30:44;;;;;;;0.15;0.15;;;;;;;;;;4942672;28;20047;-68
2023/01/05 08:33:09;;;;;;;0.20;0.20;;;;;;;;;;4950050;28;20047;-67
2023/01/05 08:35:42;;;;;;;0.10;0.10;;;;;;;;;;4941060;28;20039;-68
2023/01/05 08:38:09;;;;;;;0.20;0.20;;;;;;;;;;4942454;28;20133;-68
2023/01/05 08:40:36;;;;;;;0.20;0.20;;;;;;;;;;4957550;28;20051;-68
2023/01/05 08:43:02;;;;;;;0.10;0.10;;;;;;;;;;4943457;28;21022;-68
2023/01/05 08:45:28;;;;;;;0.40;0.30;;;;;;;;;;4941882;28;20051;-68
2023/01/05 08:47:54;;;;;;;0.10;0.10;;;;;;;;;;4939598;28;20133;-68
2023/01/05 08:50:19;;;;;;;0.20;0.20;;;;;;;;;;4910067;28;20047;-68
2023/01/05 08:52:44;;;;;;;0.10;0.10;;;;;;;;;;4943709;28;20051;-66
2023/01/05 08:55:10;;;;;;;0.13;0.13;;;;;;;;;;4941871;28;20077;-68
2023/01/05 08:57:35;;;;;;;0.20;0.20;;;;;;;;;;4941966;28;20043;-67
2023/01/05 09:00:02;;;;;;;0.63;0.20;;;;;;;;;;4938474;28;20830;-67
2023/01/05 09:02:27;;;;;;;0.20;0.20;;;;;;;;;;4957983;28;20055;-68
2023/01/05 09:04:53;;;;;;;0.30;0.30;;;;;;;;;;4943554;28;20050;-68
2023/01/05 09:07:19;;;;;;;0.20;0.20;;;;;;;;;;4941136;28;20464;-67
2023/01/05 09:09:44;;;;;;;1.85;0.20;;;;;;;;;;4942224;28;20509;-67
2023/01/05 09:12:10;;;;;;;0.20;0.20;;;;;;;;;;4942768;28;20515;-66
2023/01/05 09:14:35;;;;;;;0.60;0.30;;;;;;;;;;4943157;28;20070;-68
2023/01/05 09:17:01;;;;;;;0.10;0.10;;;;;;;;;;4943438;28;20062;-67
2023/01/05 09:19:26;;;;;;;0.45;0.13;;;;;;;;;;4942035;28;20052;-68
2023/01/05 09:21:52;;;;;;;0.85;0.20;;;;;;;;;;4942977;28;20043;-68
2023/01/05 09:24:18;;;;;;;2.40;0.30;;;;;;;;;;4942744;28;20051;-67
2023/01/05 09:26:43;;;;;;;0.30;0.30;;;;;;;;;;4956986;28;20420;-67
2023/01/05 09:29:10;;;;;;;0.55;0.30;;;;;;;;;;4942905;28;20105;-68
2023/01/05 09:31:36;;;;;;;0.20;0.20;;;;;;;;;;4939361;28;20043;-67
2023/01/05 09:34:01;;;;;;;0.30;0.25;;;;;;;;;;4943142;28;20043;-67
2023/01/05 09:36:26;;;;;;;2.10;0.40;;;;;;;;;;4942459;28;20066;-67
2023/01/05 09:38:53;;;;;;;0.75;0.60;;;;;;;;;;4943144;28;20138;-68
2023/01/05 09:41:26;;;;;;;0.40;0.40;;;;;;;;;;4942455;28;20043;-67
2023/01/05 09:43:57;;;;;;;0.57;0.45;;;;;;;;;;4943024;28;20058;-67
2023/01/05 09:46:31;;;;;;;1.40;0.43;;;;;;;;;;4943013;28;20047;-67
2023/01/05 09:49:00;;;;;;;0.10;0.10;;;;;;;;;;4943023;28;20142;-67
2023/01/05 09:51:27;;;;;;;2.22;0.40;;;;;;;;;;4943119;28;20039;-66
2023/01/05 09:53:53;;;;;;;0.15;0.15;;;;;;;;;;4942568;28;20061;-67
2023/01/05 09:56:26;;;;;;;0.38;0.30;;;;;;;;;;4957548;28;20043;-66
2023/01/05 09:58:55;;;;;;;0.30;0.30;;;;;;;;;;4942628;28;20051;-67
2023/01/05 10:01:21;;;;;;;0.25;0.25;;;;;;;;;;4943038;28;20051;-66
2023/01/05 10:03:55;;;;;;;0.10;0.10;;;;;;;;;;4957163;28;20046;-66
2023/01/05 10:06:25;;;;;;;0.10;0.10;;;;;;;;;;4942209;28;20717;-67
2023/01/05 10:08:51;;;;;;;1.17;0.20;;;;;;;;;;4957525;28;20051;-66
2023/01/05 10:14:14;;;;;;;0.13;0.13;;;;;;;;;;4941730;28;20094;-66
2023/01/05 10:16:44;;;;;;;0.10;0.10;;;;;;;;;;4941927;28;20138;-67
2023/01/05 10:19:15;;;;;;;0.20;0.20;;;;;;;;;;4941724;28;20044;-66
2023/01/05 10:22:14;;;;;;;0.63;0.20;;;;;;;;;;4957494;28;20063;-66
2023/01/05 10:25:04;;;;;;;0.10;0.10;;;;;;;;;;4940152;28;20047;-66
2023/01/05 10:27:40;;;;;;;0.20;0.20;;;;;;;;;;4941412;28;20086;-67
2023/01/05 10:30:11;;;;;;;0.20;0.20;;;;;;;;;;4942238;28;20077;-68
2023/01/05 10:33:00;;;;;;;0.20;0.20;;;;;;;;;;4942982;28;20146;-68
2023/01/05 10:35:41;;;;;;;0.38;0.20;;;;;;;;;;4957137;28;20047;-67
2023/01/05 10:38:10;;;;;;;0.52;0.38;;;;;;;;;;4940913;28;20058;-66
2023/01/05 10:40:41;;;;;;;0.73;0.20;;;;;;;;;;4943056;28;20066;-66
2023/01/05 10:43:25;;;;;;;0.90;0.20;;;;;;;;;;4942789;28;20166;-68
2023/01/05 10:45:50;;;;;;;1.20;0.30;;;;;;;;;;4942602;28;20055;-67
2023/01/05 10:48:21;;;;;;;0.10;0.10;;;;;;;;;;4940605;28;20117;-67
2023/01/05 10:50:47;;;;;;;0.80;0.40;;;;;;;;;;4941194;28;21130;-68
2023/01/05 10:53:24;;;;;;;0.43;0.40;;;;;;;;;;4942189;28;20860;-68
2023/01/05 10:56:02;;;;;;;0.40;0.40;;;;;;;;;;4920068;28;20055;-69
2023/01/05 10:58:30;;;;;;;0.30;0.30;;;;;;;;;;4920723;28;20056;-68
2023/01/05 11:01:05;;;;;;;0.45;0.45;;;;;;;;;;4922904;28;20102;-68
2023/01/05 11:03:41;;;;;;;1.05;0.32;;;;;;;;;;4937395;29;20130;-69
2023/01/05 11:06:08;;;;;;;0.45;0.45;;;;;;;;;;4922190;28;20051;-68
2023/01/05 11:08:34;;;;;;;0.47;0.32;;;;;;;;;;4923007;29;20072;-68
2023/01/05 11:11:07;;;;;;;1.23;0.38;;;;;;;;;;4936844;28;20062;-67
2023/01/05 11:13:47;;;;;;;0.20;0.20;;;;;;;;;;4922934;28;20091;-69
2023/01/05 11:16:15;;;;;;;1.02;0.40;;;;;;;;;;4923077;28;20493;-67
2023/01/05 11:18:51;;;;;;;0.20;0.20;;;;;;;;;;4937102;29;20048;-68
2023/01/05 11:21:25;;;;;;;0.55;0.50;;;;;;;;;;4922474;29;20119;-70
2023/01/05 11:23:54;;;;;;;0.43;0.40;;;;;;;;;;4923241;28;20055;-70
2023/01/05 11:26:26;;;;;;;0.45;0.35;;;;;;;;;;4922923;29;20441;-70
2023/01/05 11:29:09;;;;;;;1.15;0.30;;;;;;;;;;4922449;28;20103;-68
2023/01/05 11:31:46;;;;;;;1.08;0.50;;;;;;;;;;4922270;28;20074;-69
2023/01/05 11:34:36;;;;;;;0.60;0.50;;;;;;;;;;4921825;28;20118;-69
2023/01/05 11:37:02;;;;;;;1.08;0.40;;;;;;;;;;4923008;29;20497;-68
2023/01/05 11:39:32;;;;;;;0.32;0.32;;;;;;;;;;4922648;29;20048;-70
2023/01/05 11:42:08;;;;;;;0.75;0.40;;;;;;;;;;4922436;28;20098;-68
2023/01/05 11:44:35;;;;;;;0.15;0.15;;;;;;;;;;4921889;29;20063;-66
2023/01/05 11:47:01;;;;;;;0.60;0.30;;;;;;;;;;4922512;28;20077;-69
2023/01/05 11:49:27;;;;;;;0.40;0.38;;;;;;;;;;4921767;29;20504;-68
2023/01/05 11:51:52;;;;;;;0.38;0.38;;;;;;;;;;4914947;28;20055;-67
2023/01/05 11:54:37;;;;;;;0.43;0.38;;;;;;;;;;4919292;29;20050;-69
2023/01/05 11:57:15;;;;;;;0.38;0.32;;;;;;;;;;4920781;28;20130;-67
2023/01/05 11:59:40;;;;;;;0.30;0.30;;;;;;;;;;4920380;29;20052;-69
2023/01/05 12:02:25;;;;;;;0.40;0.40;;;;;;;;;;4919800;28;20062;-68
2023/01/05 12:04:59;;;;;;;0.40;0.40;;;;;;;;;;4920066;29;20138;-69
2023/01/05 12:07:58;;;;;;;1.73;0.57;;;;;;;;;;4920444;28;20101;-69
2023/01/05 12:10:47;;;;;;;0.30;0.30;;;;;;;;;;4918355;28;20055;-71
2023/01/05 12:13:44;;;;;;;0.73;0.43;;;;;;;;;;4939651;28;20055;-68
2023/01/05 12:16:18;;;;;;;0.30;0.30;;;;;;;;;;4937321;28;20191;-67
2023/01/05 12:19:00;;;;;;;0.50;0.50;;;;;;;;;;4938767;28;20097;-67
2023/01/05 12:21:44;;;;;;;0.40;0.40;;;;;;;;;;4938659;28;20101;-69
2023/01/05 12:24:28;;;;;;;0.35;0.35;;;;;;;;;;4941060;28;20077;-68
2023/01/05 12:27:12;;;;;;;0.30;0.30;;;;;;;;;;4956915;28;20134;-69
2023/01/05 12:29:53;;;;;;;0.30;0.30;;;;;;;;;;4942452;28;20054;-68
2023/01/05 12:33:05;;;;;;;1.55;0.57;;;;;;;;;;4937822;28;20622;-66
2023/01/05 12:35:56;;;;;;;3.83;0.30;;;;;;;;;;4863294;29;20045;-67
2023/01/05 12:38:54;;;;;;;0.50;0.35;;;;;;;;;;4935626;28;20074;-67
2023/01/05 12:41:20;;;;;;;0.20;0.20;;;;;;;;;;4938640;28;20047;-68
2023/01/05 12:43:54;;;;;;;0.60;0.60;;;;;;;;;;4942047;28;20973;-67
2023/01/05 12:46:51;;;;;;;1.00;0.57;;;;;;;;;;4940874;28;20043;-69
2023/01/05 12:49:22;;;;;;;0.98;0.50;;;;;;;;;;4939084;28;20043;-69
2023/01/05 12:51:54;;;;;;;0.60;0.60;;;;;;;;;;4941971;28;20103;-68
2023/01/05 12:54:30;;;;;;;1.05;0.45;;;;;;;;;;4942362;28;20047;-68
2023/01/05 12:57:07;;;;;;;0.47;0.38;;;;;;;;;;4943713;28;20059;-67
2023/01/05 12:59:42;;;;;;;0.63;0.30;;;;;;;;;;4941675;28;20043;-68
2023/01/05 13:02:27;;;;;;;1.15;0.60;;;;;;;;;;4942752;28;20057;-67
2023/01/05 13:04:59;;;;;;;0.98;0.50;;;;;;;;;;4939556;28;20058;-67
2023/01/05 13:07:25;;;;;;;0.40;0.40;;;;;;;;;;4942920;28;20047;-69
2023/01/05 13:10:02;;;;;;;0.80;0.80;;;;;;;;;;4941724;28;20117;-67
2023/01/05 13:12:29;;;;;;;1.17;0.60;;;;;;;;;;4937815;28;20055;-68
2023/01/05 13:15:05;;;;;;;4.63;1.15;;;;;;;;;;4943246;28;20039;-70
2023/01/05 13:17:35;;;;;;;0.55;0.55;;;;;;;;;;4941108;28;20080;-67
2023/01/05 13:20:26;;;;;;;0.73;0.60;;;;;;;;;;4937997;28;20525;-67
2023/01/05 13:22:57;;;;;;;0.40;0.30;;;;;;;;;;4953212;28;20073;-71
2023/01/05 13:25:25;;;;;;;0.68;0.68;;;;;;;;;;4943088;28;21117;-71
2023/01/05 13:27:51;;;;;;;2.13;0.70;;;;;;;;;;4942445;28;20119;-69
2023/01/05 13:30:29;;;;;;;1.38;0.60;;;;;;;;;;4941431;28;20474;-68
2023/01/05 13:33:11;;;;;;;0.50;0.50;;;;;;;;;;4942200;28;20138;-69
2023/01/05 13:36:05;;;;;;;1.35;0.60;;;;;;;;;;4941696;28;20051;-68
2023/01/05 13:38:44;;;;;;;0.50;0.38;;;;;;;;;;4955544;28;20050;-68
2023/01/05 13:41:39;;;;;;;0.40;0.40;;;;;;;;;;4942191;28;20047;-69
2023/01/05 13:44:04;;;;;;;0.70;0.40;;;;;;;;;;4933702;28;20059;-69
2023/01/05 13:46:54;;;;;;;0.22;0.22;;;;;;;;;;4940500;28;20101;-69
2023/01/05 13:49:34;;;;;;;0.40;0.40;;;;;;;;;;4942503;28;20043;-69
2023/01/05 13:52:03;;;;;;;0.68;0.52;;;;;;;;;;4942521;28;20047;-68
2023/01/05 13:54:45;;;;;;;0.52;0.52;;;;;;;;;;4940954;28;20075;-69
2023/01/05 13:57:22;;;;;;;0.40;0.40;;;;;;;;;;4943449;28;20074;-69
2023/01/05 13:59:51;;;;;;;0.40;0.40;;;;;;;;;;4943442;28;20132;-69
2023/01/05 14:02:42;;;;;;;0.85;0.50;;;;;;;;;;4943173;28;20055;-70
2023/01/05 14:05:29;;;;;;;1.85;0.30;;;;;;;;;;4942882;28;20059;-69
2023/01/05 14:07:58;;;;;;;0.60;0.60;;;;;;;;;;4943453;28;20051;-69
2023/01/05 14:10:29;;;;;;;0.38;0.38;;;;;;;;;;4942723;28;20055;-69
2023/01/05 14:12:55;;;;;;;0.68;0.68;;;;;;;;;;4943571;28;20057;-68
2023/01/05 14:15:41;;;;;;;5.53;0.68;;;;;;;;;;4943499;28;20043;-69
2023/01/05 14:18:10;;;;;;;0.50;0.45;;;;;;;;;;4938827;28;20051;-68
2023/01/05 14:20:45;;;;;;;0.93;0.80;;;;;;;;;;4942596;28;20101;-68
2023/01/05 14:23:22;;;;;;;0.68;0.50;;;;;;;;;;4942954;28;20055;-69
2023/01/05 14:25:59;;;;;;;0.50;0.50;;;;;;;;;;4943406;28;20154;-69
2023/01/05 14:28:27;;;;;;;1.98;1.85;;;;;;;;;;4940890;28;20098;-69
2023/01/05 14:31:13;;;;;;;1.42;1.33;;;;;;;;;;4942980;28;20039;-69
2023/01/05 14:33:56;;;;;;;1.30;1.17;;;;;;;;;;4943233;28;20381;-70
2023/01/05 14:36:22;;;;;;;3.35;3.05;;;;;;;;;;4942860;28;20539;-69
2023/01/05 14:38:48;;;;;;;3.47;2.35;;;;;;;;;;4941862;28;20627;-69
2023/01/05 14:41:22;;;;;;;1.63;1.42;;;;;;;;;;4942883;28;20093;-69
2023/01/05 14:43:56;;;;;;;3.50;2.90;;;;;;;;;;4942927;28;20043;-69
2023/01/05 14:46:25;;;;;;;6.35;3.03;;;;;;;;;;4941876;28;20051;-69
2023/01/05 14:49:05;;;;;;;4.90;3.28;;;;;;;;;;4942123;28;20128;-69
2023/01/05 14:51:31;;;;;;;7.03;5.60;;;;;;;;;;4942442;28;20500;-69
2023/01/05 14:54:03;;;;;;;7.43;3.90;;;;;;;;;;4942434;28;20039;-69
2023/01/05 14:56:34;;;;;;;2.08;1.63;;;;;;;;;;4942628;28;20146;-69
2023/01/05 14:59:18;;;;;;;7.50;4.17;;;;;;;;;;4957133;28;20389;-69
2023/01/05 15:02:12;;;;;;;3.03;1.80;;;;;;;;;;4941797;28;20071;-69
2023/01/05 15:04:39;;;;;;;8.32;3.10;;;;;;;;;;4951350;28;20559;-70
2023/01/05 15:07:27;;;;;;;2.70;1.60;;;;;;;;;;4931232;28;20043;-69
2023/01/05 15:10:17;;;;;;;3.05;1.90;;;;;;;;;;4939087;28;20046;-69
2023/01/05 15:12:56;;;;;;;5.28;1.85;;;;;;;;;;4945270;28;20130;-69
2023/01/05 15:15:35;;;;;;;2.80;1.25;;;;;;;;;;4932032;28;20174;-68
2023/01/05 15:18:38;;;;;;;2.65;1.90;;;;;;;;;;4941531;28;20058;-69
2023/01/05 15:21:14;;;;;;;3.60;2.78;;;;;;;;;;4952185;28;20059;-69
2023/01/05 15:23:52;;;;;;;6.50;2.45;;;;;;;;;;4940878;28;20062;-69
2023/01/05 15:27:05;;;;;;;3.67;1.70;;;;;;;;;;4941829;28;20560;-69
2023/01/05 15:30:02;;;;;;;9.60;3.10;;;;;;;;;;4912187;29;20054;-69
2023/01/05 15:32:32;;;;;;;2.67;2.10;;;;;;;;;;4938962;28;20122;-69
2023/01/05 15:35:17;;;;;;;6.38;2.30;;;;;;;;;;4940623;28;20051;-69
2023/01/05 15:37:46;;;;;;;5.13;2.20;;;;;;;;;;4941370;28;20055;-69
2023/01/05 15:40:14;;;;;;;5.75;2.28;;;;;;;;;;4940019;28;20047;-70
2023/01/05 15:42:42;;;;;;;2.55;1.95;;;;;;;;;;4955585;28;20059;-71
2023/01/05 15:45:21;;;;;;;5.85;2.03;;;;;;;;;;4940287;28;20043;-70